Time;durP1;ratioP1;P1;durP2;ratioP2;P2;SDS_P1;SDS_P2;PMS_P1;PMS_P2;Temp;Humidity;BMP_temperature;BMP_pressure;BME280_temperature;BME280_humidity;BME280_pressure;Samples;Min_cycle;Max_cycle;Signal;HPM_P1;HPM_P2
2022/04/24 00:04:20;;;;;;;4.70;3.42;;;15.10;79.10;;;;;;10947077;32;20413;-68
2022/04/24 00:10:22;;;;;;;1.75;1.33;;;15.10;78.90;;;;;;10946883;32;20023;-68
2022/04/24 00:16:24;;;;;;;3.67;2.05;;;15.20;78.80;;;;;;10933187;32;20061;-68
2022/04/24 00:22:26;;;;;;;2.95;1.45;;;15.20;78.60;;;;;;10946541;32;20030;-68
2022/04/24 00:28:28;;;;;;;2.53;1.48;;;15.20;78.50;;;;;;10946527;32;20410;-68
2022/04/24 00:34:31;;;;;;;2.75;1.73;;;15.20;78.40;;;;;;10946119;32;20062;-68
2022/04/24 00:40:49;;;;;;;3.20;2.00;;;15.10;78.30;;;;;;10945813;32;20054;-68
2022/04/24 00:47:09;;;;;;;3.30;2.08;;;15.10;78.30;;;;;;10932265;32;20406;-68
2022/04/24 00:53:17;;;;;;;;;;;15.10;78.30;;;;;;10944284;32;20041;-68
2022/04/24 00:59:19;;;;;;;1.42;1.33;;;15.10;78.20;;;;;;10932016;32;20076;-68
2022/04/24 01:05:22;;;;;;;3.25;2.05;;;15.00;78.10;;;;;;10945859;32;20023;-67
2022/04/24 01:11:24;;;;;;;3.87;2.62;;;15.00;78.00;;;;;;10944847;32;20433;-68
2022/04/24 01:17:44;;;;;;;3.53;2.37;;;15.00;78.00;;;;;;10976152;27;20331;-68
2022/04/24 01:23:50;;;;;;;3.95;2.67;;;15.00;78.00;;;;;;10981979;32;20338;-73
2022/04/24 01:29:52;;;;;;;4.85;2.53;;;15.00;78.00;;;;;;10981963;32;20437;-73
2022/04/24 01:35:54;;;;;;;2.60;2.30;;;15.00;78.00;;;;;;10981677;32;20453;-73
2022/04/24 01:41:59;;;;;;;5.00;3.35;;;15.00;77.80;;;;;;10977298;32;20296;-73
2022/04/24 01:48:01;;;;;;;6.20;4.12;;;15.00;77.80;;;;;;10981084;32;20056;-73
2022/04/24 01:54:03;;;;;;;5.22;3.40;;;14.90;77.90;;;;;;10980876;32;20026;-73
2022/04/24 02:00:06;;;;;;;7.95;4.10;;;14.90;77.80;;;;;;10976454;32;20069;-74
2022/04/24 02:06:14;;;;;;;7.50;4.50;;;14.90;77.90;;;;;;10980678;32;20015;-74
2022/04/24 02:12:22;;;;;;;7.70;4.12;;;14.90;78.00;;;;;;10980326;32;20035;-74
2022/04/24 02:18:24;;;;;;;6.07;4.23;;;14.80;77.90;;;;;;10980004;32;20100;-74
2022/04/24 02:24:26;;;;;;;6.85;4.47;;;14.80;78.00;;;;;;10979959;32;20348;-74
2022/04/24 02:30:30;;;;;;;6.78;3.60;;;14.80;78.10;;;;;;10979741;32;20057;-74
2022/04/24 02:36:32;;;;;;;9.50;5.22;;;14.70;77.90;;;;;;10979694;32;20018;-73
2022/04/24 02:42:34;;;;;;;5.20;3.28;;;14.70;77.90;;;;;;10979782;32;20186;-74
2022/04/24 02:48:37;;;;;;;7.50;3.83;;;14.70;77.90;;;;;;10979580;32;20019;-73
2022/04/24 02:54:40;;;;;;;6.05;4.05;;;14.70;77.80;;;;;;10975261;32;20328;-73
2022/04/24 03:00:43;;;;;;;5.93;4.15;;;14.70;77.70;;;;;;10979367;32;20416;-73
2022/04/24 03:06:45;;;;;;;7.85;4.30;;;14.70;77.80;;;;;;10979210;32;20022;-73
2022/04/24 03:12:47;;;;;;;12.40;5.87;;;14.70;77.90;;;;;;10981331;32;20015;-73
2022/04/24 03:18:50;;;;;;;7.53;4.18;;;14.70;77.90;;;;;;10983367;32;20312;-73
2022/04/24 03:24:52;;;;;;;5.70;4.43;;;14.70;78.00;;;;;;10986486;32;20015;-73
2022/04/24 03:30:54;;;;;;;10.77;6.70;;;14.70;78.00;;;;;;10986227;32;20023;-73
2022/04/24 03:36:58;;;;;;;8.93;5.87;;;14.60;78.30;;;;;;10985803;32;20027;-73
2022/04/24 03:43:00;;;;;;;12.70;5.95;;;14.50;78.50;;;;;;10985809;32;20030;-73
2022/04/24 03:49:02;;;;;;;11.15;9.10;;;14.60;78.60;;;;;;10985533;32;20022;-73
2022/04/24 03:55:05;;;;;;;7.50;5.10;;;14.60;78.40;;;;;;10985214;32;20107;-73
2022/04/24 04:01:12;;;;;;;6.07;4.62;;;14.50;78.60;;;;;;10984049;32;20327;-73
2022/04/24 04:07:16;;;;;;;5.25;3.10;;;14.50;78.60;;;;;;10980935;32;20052;-73
2022/04/24 04:13:18;;;;;;;5.75;3.80;;;14.50;78.40;;;;;;10984298;32;20053;-73
2022/04/24 04:19:20;;;;;;;6.10;4.57;;;14.40;78.40;;;;;;10984357;32;20045;-73
2022/04/24 04:25:29;;;;;;;5.55;3.40;;;14.40;78.30;;;;;;10983348;32;20037;-73
2022/04/24 04:31:31;;;;;;;5.55;3.58;;;14.40;78.20;;;;;;10983991;32;20049;-74
2022/04/24 04:37:33;;;;;;;4.65;3.35;;;14.40;78.20;;;;;;10979969;32;20030;-74
2022/04/24 04:43:35;;;;;;;5.28;3.45;;;14.30;78.10;;;;;;10981469;32;20026;-73
2022/04/24 04:49:37;;;;;;;6.62;4.50;;;14.20;78.10;;;;;;10983385;32;20015;-74
2022/04/24 04:55:40;;;;;;;9.52;5.07;;;14.20;78.10;;;;;;10983051;32;20068;-73
2022/04/24 05:01:42;;;;;;;5.72;4.18;;;14.20;78.20;;;;;;10982889;32;20018;-74
2022/04/24 05:07:44;;;;;;;6.72;3.72;;;14.20;78.20;;;;;;10969202;32;20022;-74
2022/04/24 05:13:46;;;;;;;7.12;4.57;;;14.10;78.10;;;;;;10982122;32;20031;-73
2022/04/24 05:19:48;;;;;;;7.72;4.65;;;14.10;78.10;;;;;;10982179;32;20061;-73
2022/04/24 05:25:51;;;;;;;7.30;4.90;;;14.20;77.90;;;;;;10981949;32;20429;-73
2022/04/24 05:31:53;;;;;;;12.15;6.15;;;14.30;77.80;;;;;;10981704;32;20417;-73
2022/04/24 05:37:55;;;;;;;9.45;5.62;;;14.50;77.70;;;;;;10981398;32;20350;-73
2022/04/24 05:43:57;;;;;;;7.80;5.72;;;14.70;77.60;;;;;;10981350;32;20026;-73
2022/04/24 05:49:59;;;;;;;6.75;3.65;;;14.60;77.60;;;;;;10981155;32;20019;-74
2022/04/24 05:56:05;;;;;;;7.00;4.57;;;14.50;77.80;;;;;;10980858;32;20316;-73
2022/04/24 06:02:07;;;;;;;5.28;3.30;;;14.60;77.80;;;;;;10980799;32;20015;-73
2022/04/24 06:08:10;;;;;;;5.18;3.55;;;14.60;77.80;;;;;;10980535;32;20023;-74
2022/04/24 06:14:13;;;;;;;7.12;4.70;;;14.60;77.90;;;;;;10980393;32;20022;-72
2022/04/24 06:20:17;;;;;;;4.30;2.85;;;14.70;77.90;;;;;;10967054;32;20379;-72
2022/04/24 06:26:19;;;;;;;2.60;2.10;;;14.70;77.90;;;;;;10980218;32;20033;-72
2022/04/24 06:32:21;;;;;;;4.82;3.42;;;14.80;77.50;;;;;;10978009;32;20049;-72
2022/04/24 06:38:24;;;;;;;5.65;2.40;;;14.90;77.30;;;;;;10975834;32;20037;-73
2022/04/24 06:44:26;;;;;;;7.28;3.97;;;15.00;77.10;;;;;;10980068;32;20049;-73
2022/04/24 06:50:30;;;;;;;4.62;3.03;;;15.00;77.00;;;;;;10979328;32;20331;-74
2022/04/24 06:56:32;;;;;;;23.35;4.93;;;15.00;77.10;;;;;;10979711;32;20026;-73
2022/04/24 07:02:34;;;;;;;6.75;3.03;;;15.10;77.40;;;;;;10976435;32;20062;-74
2022/04/24 07:08:37;;;;;;;6.68;3.70;;;15.10;77.30;;;;;;10965732;32;20026;-74
2022/04/24 07:14:39;;;;;;;3.33;2.37;;;15.10;76.70;;;;;;10974540;32;20026;-73
2022/04/24 07:20:41;;;;;;;4.20;2.08;;;15.00;76.40;;;;;;10979288;32;20015;-74
2022/04/24 07:27:43;;;;;;;3.12;2.22;;;15.10;75.60;;;;;;10975571;32;20049;-76
2022/04/24 07:34:04;;;;;;;6.70;2.22;;;15.10;74.80;;;;;;10826296;32;20035;-74
2022/04/24 07:40:29;;;;;;;2.42;1.58;;;15.30;74.10;;;;;;10825154;32;20024;-74
2022/04/24 07:46:32;;;;;;;2.58;1.80;;;15.50;74.10;;;;;;10821385;32;20050;-74
2022/04/24 07:52:34;;;;;;;1.23;1.12;;;15.40;72.60;;;;;;10811416;33;20050;-74
2022/04/24 07:58:36;;;;;;;3.17;1.27;;;15.30;73.00;;;;;;10827447;32;20151;-75
2022/04/24 08:04:38;;;;;;;2.22;1.65;;;15.50;72.70;;;;;;10820015;32;20431;-75
2022/04/24 08:10:43;;;;;;;1.45;1.15;;;15.70;71.90;;;;;;10924976;32;20011;-74
2022/04/24 08:16:45;;;;;;;1.10;1.00;;;15.70;72.20;;;;;;10947173;32;20077;-74
2022/04/24 08:22:50;;;;;;;1.23;0.70;;;15.80;71.70;;;;;;10945642;32;20039;-74
2022/04/24 08:28:52;;;;;;;1.85;1.30;;;15.80;71.60;;;;;;10942992;32;20359;-73
2022/04/24 08:34:56;;;;;;;1.77;1.50;;;15.90;71.20;;;;;;10945994;32;20374;-73
2022/04/24 08:41:00;;;;;;;1.58;1.15;;;16.00;71.30;;;;;;10946178;32;20069;-74
2022/04/24 08:47:03;;;;;;;1.10;0.82;;;16.10;70.70;;;;;;10941996;32;20046;-74
2022/04/24 08:53:07;;;;;;;0.90;0.82;;;16.30;70.40;;;;;;10943860;32;20059;-74
2022/04/24 08:59:10;;;;;;;1.08;0.98;;;16.20;69.00;;;;;;10945480;32;20448;-75
2022/04/24 09:05:13;;;;;;;1.87;1.33;;;16.10;68.20;;;;;;10944350;32;20304;-74
2022/04/24 09:11:19;;;;;;;1.45;1.00;;;15.80;68.10;;;;;;10944632;32;20030;-74
2022/04/24 09:17:27;;;;;;;0.77;0.73;;;15.70;67.70;;;;;;10966773;27;294366;-74
2022/04/24 09:23:36;;;;;;;1.45;0.70;;;15.70;67.40;;;;;;10982020;32;20338;-69
2022/04/24 09:29:40;;;;;;;1.12;1.05;;;15.70;68.30;;;;;;10981602;32;20049;-69
2022/04/24 09:35:43;;;;;;;2.50;0.70;;;15.70;68.30;;;;;;10979834;32;20069;-70
2022/04/24 09:41:45;;;;;;;0.70;0.70;;;15.70;68.50;;;;;;10981313;32;20050;-69
2022/04/24 09:47:58;;;;;;;4.43;1.90;;;15.70;68.50;;;;;;10950101;32;20038;-69
2022/04/24 09:54:00;;;;;;;5.15;1.90;;;15.70;68.40;;;;;;10939922;32;20034;-70
2022/04/24 10:00:03;;;;;;;3.33;2.05;;;15.70;68.20;;;;;;10943056;32;20019;-71
2022/04/24 10:06:10;;;;;;;2.60;1.98;;;15.70;67.80;;;;;;10939370;32;20322;-70
2022/04/24 10:12:21;;;;;;;3.37;2.00;;;15.60;67.70;;;;;;10942758;32;20022;-69
2022/04/24 10:18:35;;;;;;;2.05;1.65;;;15.50;67.30;;;;;;10942371;32;20034;-69
2022/04/24 10:24:40;;;;;;;6.60;2.70;;;15.60;67.50;;;;;;10924810;32;20027;-70
2022/04/24 10:30:47;;;;;;;2.20;1.87;;;15.60;67.40;;;;;;10940501;32;20050;-71
2022/04/24 10:36:59;;;;;;;3.90;2.05;;;15.50;67.90;;;;;;10940563;32;20390;-70
2022/04/24 10:43:10;;;;;;;4.82;2.37;;;15.60;68.30;;;;;;10941886;32;20010;-69
2022/04/24 10:49:15;;;;;;;4.32;2.17;;;15.50;68.30;;;;;;10937378;32;20049;-70
2022/04/24 10:55:23;;;;;;;6.25;2.70;;;15.40;68.80;;;;;;10937267;32;20031;-71
2022/04/24 11:01:36;;;;;;;3.22;2.03;;;15.20;69.70;;;;;;10939846;32;20380;-70
2022/04/24 11:07:38;;;;;;;2.97;1.98;;;14.80;70.60;;;;;;10941484;32;20019;-70
2022/04/24 11:13:42;;;;;;;4.12;1.62;;;14.50;72.00;;;;;;10941183;32;20061;-70
2022/04/24 11:19:44;;;;;;;3.12;2.58;;;14.40;72.60;;;;;;10940442;32;20042;-70
2022/04/24 11:25:47;;;;;;;2.72;1.77;;;14.30;72.90;;;;;;10941167;32;20382;-70
2022/04/24 11:31:52;;;;;;;3.17;1.87;;;14.50;73.20;;;;;;10940070;32;20327;-70
2022/04/24 11:37:55;;;;;;;2.62;1.05;;;14.80;72.80;;;;;;10933556;32;20023;-71
2022/04/24 11:44:02;;;;;;;2.58;1.42;;;15.20;71.80;;;;;;10947367;32;20019;-70
2022/04/24 11:50:14;;;;;;;3.00;1.20;;;15.50;70.90;;;;;;10947807;32;20352;-70
2022/04/24 11:56:16;;;;;;;1.20;0.98;;;15.80;69.70;;;;;;10946985;32;20084;-71
2022/04/24 12:02:38;;;;;;;2.85;1.42;;;16.20;68.50;;;;;;10947458;32;20070;-71
2022/04/24 12:08:42;;;;;;;1.60;1.30;;;16.40;67.80;;;;;;10946213;32;20374;-74
2022/04/24 12:14:54;;;;;;;2.58;1.80;;;16.30;66.20;;;;;;10945591;32;20027;-72
2022/04/24 12:21:02;;;;;;;2.20;1.73;;;16.00;66.60;;;;;;10946891;32;20424;-71
2022/04/24 12:27:09;;;;;;;1.48;1.35;;;15.80;67.30;;;;;;10944141;32;20049;-71
2022/04/24 12:33:13;;;;;;;1.75;1.42;;;15.90;67.80;;;;;;10941856;32;20065;-72
2022/04/24 12:46:42;;;;;;;1.35;1.12;;;15.90;66.00;;;;;;10943303;32;20050;-69
2022/04/24 12:52:46;;;;;;;2.25;1.15;;;15.90;66.60;;;;;;10945308;32;20406;-70
2022/04/24 12:58:51;;;;;;;0.90;0.90;;;15.90;66.00;;;;;;10945476;32;20406;-70
2022/04/24 13:04:57;;;;;;;1.75;1.52;;;15.90;65.90;;;;;;10943469;32;20061;-71
2022/04/24 13:11:01;;;;;;;2.03;1.08;;;16.20;66.50;;;;;;10944996;32;20035;-71
2022/04/24 13:23:25;;;;;;;1.87;1.08;;;17.10;65.00;;;;;;10943504;32;20053;-71
2022/04/24 13:29:29;;;;;;;0.70;0.70;;;17.30;63.90;;;;;;10942354;32;20015;-70
2022/04/24 13:35:32;;;;;;;3.37;1.85;;;17.00;64.00;;;;;;10930254;32;20030;-70
2022/04/24 13:41:34;;;;;;;0.93;0.70;;;16.80;63.80;;;;;;10942630;32;20030;-70
2022/04/24 13:47:36;;;;;;;1.37;1.00;;;16.70;64.50;;;;;;10939414;32;20485;-70
2022/04/24 13:53:40;;;;;;;1.52;0.70;;;16.90;64.80;;;;;;10943172;32;20038;-70
2022/04/24 13:59:47;;;;;;;1.25;0.62;;;17.10;64.60;;;;;;10940111;32;20060;-70
2022/04/24 14:05:52;;;;;;;1.10;0.75;;;17.30;64.10;;;;;;10939274;32;20034;-70
2022/04/24 14:12:11;;;;;;;1.05;0.70;;;17.30;64.10;;;;;;10939390;32;20035;-69
2022/04/24 14:18:13;;;;;;;0.62;0.57;;;17.40;63.70;;;;;;10941183;32;20045;-69
2022/04/24 14:24:15;;;;;;;0.98;0.60;;;17.60;63.60;;;;;;10941439;32;20367;-69
2022/04/24 14:30:17;;;;;;;1.20;0.88;;;17.80;63.40;;;;;;10938490;32;20031;-70
2022/04/24 14:36:19;;;;;;;0.73;0.60;;;17.90;63.10;;;;;;10939831;32;20026;-69
2022/04/24 14:42:34;;;;;;;0.85;0.57;;;17.90;63.30;;;;;;10941544;32;20026;-70
2022/04/24 14:55:46;;;;;;;0.45;0.45;;;17.90;63.10;;;;;;10940897;32;20103;-70
2022/04/24 15:01:50;;;;;;;0.68;0.52;;;18.10;63.20;;;;;;10940392;32;20038;-69
2022/04/24 15:07:53;;;;;;;0.45;0.45;;;18.70;62.10;;;;;;10942337;32;20053;-69
2022/04/24 15:14:05;;;;;;;0.82;0.50;;;19.10;60.80;;;;;;10936373;32;20054;-70
2022/04/24 15:20:08;;;;;;;1.10;0.68;;;19.20;61.00;;;;;;10935017;32;20058;-70
2022/04/24 15:26:09;;;;;;;0.30;0.30;;;19.50;60.50;;;;;;10944326;32;20027;-69
2022/04/24 15:32:24;;;;;;;1.20;1.10;;;19.80;59.40;;;;;;10930737;32;20035;-69
2022/04/24 15:38:26;;;;;;;1.40;0.93;;;19.90;59.40;;;;;;10934414;32;20058;-69
2022/04/24 15:45:10;;;;;;;0.57;0.40;;;19.70;59.80;;;;;;10934476;32;20031;-69
2022/04/24 15:50:53;;;;;;;0.98;0.73;;;19.60;60.10;;;;;;10947381;32;20053;-69
2022/04/24 15:56:56;;;;;;;1.25;1.10;;;19.30;60.60;;;;;;10946790;32;20453;-69
2022/04/24 16:02:58;;;;;;;1.90;0.90;;;19.00;60.80;;;;;;10946576;32;20030;-69
2022/04/24 16:09:00;;;;;;;1.60;1.02;;;18.60;61.20;;;;;;10946319;32;20035;-69
2022/04/24 16:15:03;;;;;;;2.28;1.10;;;18.40;61.70;;;;;;10943150;32;20064;-69
2022/04/24 16:21:06;;;;;;;1.02;0.90;;;18.30;62.10;;;;;;10932546;32;20022;-69
2022/04/24 16:27:08;;;;;;;1.85;0.93;;;18.20;62.20;;;;;;10944634;32;20409;-69
2022/04/24 16:33:10;;;;;;;1.20;1.10;;;18.20;62.40;;;;;;10944794;32;20023;-69
2022/04/24 16:39:13;;;;;;;2.37;1.25;;;18.30;62.40;;;;;;10943977;32;20035;-69
2022/04/24 16:45:15;;;;;;;1.73;0.80;;;19.20;62.30;;;;;;10945831;32;20045;-69
2022/04/24 17:04:03;;;;;;;1.62;0.90;;;21.60;57.50;;;;;;10945989;32;20069;-72
2022/04/24 17:10:07;;;;;;;2.65;1.55;;;20.30;60.10;;;;;;10945183;32;20030;-72
2022/04/24 17:16:18;;;;;;;3.28;0.90;;;19.30;62.40;;;;;;10966835;27;20070;-72
2022/04/24 17:22:24;;;;;;;5.82;1.92;;;18.90;63.60;;;;;;10967543;32;20403;-72
2022/04/24 17:28:26;;;;;;;3.03;1.37;;;18.70;64.10;;;;;;10980827;32;20019;-72
2022/04/24 17:34:28;;;;;;;1.90;1.70;;;18.20;64.40;;;;;;10977587;32;20049;-72
2022/04/24 17:40:30;;;;;;;2.90;1.45;;;17.80;65.40;;;;;;10944068;32;20050;-72
2022/04/24 17:46:32;;;;;;;3.20;1.65;;;17.50;66.10;;;;;;10942414;32;20043;-69
2022/04/24 17:52:36;;;;;;;2.97;2.03;;;17.20;66.90;;;;;;10943378;32;20045;-69
2022/04/24 17:58:39;;;;;;;1.83;1.40;;;16.90;67.60;;;;;;10943044;32;20437;-69
2022/04/24 18:04:44;;;;;;;3.53;2.35;;;16.70;68.10;;;;;;10942922;32;20014;-69
2022/04/24 18:10:47;;;;;;;5.78;3.10;;;16.50;68.80;;;;;;10941718;32;20038;-69
2022/04/24 18:16:50;;;;;;;10.02;5.22;;;16.30;69.30;;;;;;10942307;32;20023;-69
2022/04/24 18:22:53;;;;;;;3.72;2.50;;;16.30;69.40;;;;;;10942322;32;20061;-69
2022/04/24 18:28:55;;;;;;;3.70;2.65;;;16.30;69.40;;;;;;10940931;32;20023;-69
2022/04/24 18:35:00;;;;;;;3.17;1.85;;;16.30;69.40;;;;;;10941575;32;20058;-69
2022/04/24 18:41:09;;;;;;;3.90;2.42;;;16.30;69.50;;;;;;10937501;32;20019;-69
2022/04/24 18:47:13;;;;;;;6.87;4.03;;;16.10;70.00;;;;;;10940411;32;20023;-71
2022/04/24 18:53:19;;;;;;;11.70;7.97;;;16.10;70.30;;;;;;10940545;32;20022;-71
2022/04/24 18:59:31;;;;;;;11.10;6.40;;;15.90;70.80;;;;;;10941979;32;20063;-72
2022/04/24 19:12:05;;;;;;;5.22;3.37;;;15.80;71.50;;;;;;10937678;32;20296;-72
2022/04/24 19:18:08;;;;;;;5.00;2.80;;;15.90;71.20;;;;;;10941834;32;20076;-72
2022/04/24 19:24:11;;;;;;;11.02;5.05;;;15.80;71.00;;;;;;10941203;32;20417;-72
2022/04/24 19:30:16;;;;;;;6.82;3.85;;;15.80;70.90;;;;;;10941610;32;20022;-72
2022/04/24 19:36:20;;;;;;;6.90;4.00;;;15.80;71.30;;;;;;10940815;32;20058;-72
2022/04/24 19:42:23;;;;;;;8.63;4.93;;;15.70;71.20;;;;;;10941606;32;20018;-72
2022/04/24 19:55:12;;;;;;;10.75;5.75;;;15.70;71.30;;;;;;10942659;32;20062;-69
2022/04/24 20:01:14;;;;;;;15.20;6.53;;;15.50;71.30;;;;;;10947552;32;20399;-69
2022/04/24 20:07:19;;;;;;;6.68;3.95;;;15.40;71.40;;;;;;10947325;32;20058;-69
2022/04/24 20:14:22;;;;;;;6.40;4.70;;;15.50;71.30;;;;;;10831564;32;20062;-69
2022/04/24 20:20:31;;;;;;;6.22;3.97;;;15.30;71.70;;;;;;10831122;32;20039;-69
2022/04/24 20:26:34;;;;;;;6.10;4.23;;;15.20;72.40;;;;;;10829978;32;20105;-69
2022/04/24 20:32:46;;;;;;;6.05;3.67;;;15.10;72.30;;;;;;10835770;32;20407;-69
2022/04/24 20:38:52;;;;;;;5.10;3.42;;;15.10;72.30;;;;;;10857936;32;20070;-69
2022/04/24 20:45:02;;;;;;;4.03;2.58;;;15.10;72.30;;;;;;10867466;32;20020;-69
2022/04/24 20:51:04;;;;;;;4.82;3.47;;;15.20;72.40;;;;;;10866452;32;20023;-69
2022/04/24 20:57:09;;;;;;;5.00;3.10;;;15.00;72.30;;;;;;10866232;32;20415;-69
2022/04/24 21:03:15;;;;;;;5.10;3.45;;;15.00;72.40;;;;;;10866315;32;20348;-69
2022/04/24 21:09:22;;;;;;;5.75;3.30;;;15.00;72.70;;;;;;10840779;32;20024;-69
2022/04/24 21:15:24;;;;;;;4.72;3.30;;;15.00;72.50;;;;;;10896245;32;20038;-69
2022/04/24 21:21:27;;;;;;;3.60;2.45;;;14.90;72.50;;;;;;10944777;32;20041;-69
2022/04/24 21:27:30;;;;;;;7.12;2.78;;;14.80;72.70;;;;;;10931093;32;20023;-69
2022/04/24 21:33:32;;;;;;;3.30;2.70;;;14.70;72.70;;;;;;10930799;32;20414;-69
2022/04/24 21:39:35;;;;;;;3.95;2.78;;;14.70;72.70;;;;;;10939737;32;20034;-69
2022/04/24 21:45:38;;;;;;;5.55;2.87;;;14.60;72.60;;;;;;10943754;32;20050;-69
2022/04/24 21:51:40;;;;;;;5.00;3.92;;;14.50;72.80;;;;;;10942882;32;20053;-69
2022/04/24 21:57:42;;;;;;;9.15;4.07;;;14.50;73.00;;;;;;10942505;32;20026;-69
2022/04/24 22:10:06;;;;;;;4.70;3.33;;;14.40;73.60;;;;;;10940789;32;20057;-69
2022/04/24 22:16:08;;;;;;;4.97;3.28;;;14.50;73.60;;;;;;10943625;32;20401;-69
2022/04/24 22:28:54;;;;;;;4.50;3.83;;;14.50;73.50;;;;;;10973208;32;20057;-69
2022/04/24 22:35:01;;;;;;;3.58;2.75;;;14.30;73.90;;;;;;10942302;32;20053;-69
2022/04/24 22:41:03;;;;;;;4.60;2.12;;;14.20;74.00;;;;;;10937791;32;20054;-69
2022/04/24 22:47:12;;;;;;;6.68;3.05;;;14.20;74.00;;;;;;10941995;32;20061;-69
2022/04/24 22:53:18;;;;;;;3.17;2.60;;;14.20;74.00;;;;;;10941756;32;20027;-69
2022/04/24 22:59:20;;;;;;;2.72;2.40;;;14.20;74.10;;;;;;10941533;32;20339;-69
2022/04/24 23:05:43;;;;;;;4.22;2.05;;;14.20;74.10;;;;;;10927133;32;20045;-69
2022/04/24 23:11:46;;;;;;;3.92;3.05;;;14.10;74.10;;;;;;10939750;32;20351;-68
2022/04/24 23:24:09;;;;;;;4.93;3.37;;;14.00;74.30;;;;;;10941280;32;20054;-71
2022/04/24 23:30:13;;;;;;;8.38;3.22;;;14.00;74.40;;;;;;10939607;32;20495;-71
2022/04/24 23:36:15;;;;;;;4.78;2.87;;;13.90;74.20;;;;;;10948530;32;20019;-72
2022/04/24 23:42:18;;;;;;;3.30;2.00;;;13.80;74.40;;;;;;10947582;32;20027;-72
2022/04/24 23:48:21;;;;;;;2.58;1.92;;;13.80;74.50;;;;;;10943782;32;20018;-71
2022/04/24 23:54:23;;;;;;;2.97;2.00;;;13.70;74.50;;;;;;10947633;32;20031;-71
